createdAt,value
2019-01-19T00:02:12.222Z,60578.77
2019-01-19T00:04:49.623Z,60590.96
2019-01-19T00:07:36.520Z,60578.77
2019-01-19T00:10:10.997Z,60546.25
2019-01-19T00:12:45.355Z,60560.48
2019-01-19T00:15:16.752Z,60606.21
2019-01-19T00:17:54.201Z,60565.56
2019-01-19T00:20:34.705Z,60580.80
2019-01-19T00:23:31.709Z,60559.46
2019-01-19T00:26:15.308Z,60542.19
2019-01-19T00:28:49.937Z,60572.67
2019-01-19T00:31:21.628Z,60557.43
2019-01-19T00:34:25.346Z,60559.46
2019-01-19T00:36:59.860Z,60568.61
2019-01-19T00:39:43.249Z,60575.72
2019-01-19T00:42:14.952Z,60568.61
2019-01-19T00:44:54.661Z,60560.48
2019-01-19T00:47:41.211Z,60610.27
2019-01-19T00:50:21.329Z,60597.06
2019-01-19T00:53:01.581Z,60570.64
2019-01-19T00:55:45.252Z,60573.69
2019-01-19T00:58:17.011Z,60561.50
2019-01-19T01:00:58.259Z,60591.98
2019-01-19T01:03:38.131Z,60564.54
2019-01-19T01:06:09.897Z,60546.25
2019-01-19T01:08:46.999Z,60559.46
2019-01-19T01:11:19.346Z,60571.66
2019-01-19T01:14:17.997Z,60567.59
2019-01-19T01:16:49.459Z,60590.96
2019-01-19T01:19:38.582Z,60590.96
2019-01-19T01:22:22.212Z,60577.75
2019-01-19T01:25:12.415Z,60590.96
2019-01-19T01:27:49.897Z,60579.79
2019-01-19T01:30:24.342Z,60545.23
2019-01-19T01:32:55.789Z,60574.71
2019-01-19T01:35:41.759Z,60584.87
2019-01-19T01:38:25.035Z,60581.82
2019-01-19T01:41:16.288Z,60556.41
2019-01-19T01:44:14.967Z,60564.54
2019-01-19T01:47:09.361Z,60556.41
2019-01-19T01:49:46.872Z,60584.87
2019-01-19T01:52:41.241Z,60573.69
2019-01-19T01:55:13.003Z,60597.06
2019-01-19T01:57:44.756Z,60567.59
2019-01-19T02:00:21.708Z,60568.61
2019-01-19T02:03:02.197Z,60570.64
2019-01-19T02:05:45.325Z,60567.59
2019-01-19T02:08:40.896Z,60581.82
2019-01-19T02:11:21.225Z,60587.92
2019-01-19T02:13:52.956Z,60561.50
2019-01-19T02:16:40.679Z,60576.74
2019-01-19T02:19:27.511Z,60596.05
2019-01-19T02:22:14.516Z,60597.06
2019-01-19T02:24:58.362Z,60607.23
2019-01-19T02:27:38.559Z,60566.57
2019-01-19T02:30:13.350Z,60556.41
2019-01-19T02:32:50.783Z,60553.36
2019-01-19T02:35:48.142Z,60563.53
2019-01-19T02:38:16.750Z,60556.41
2019-01-19T02:41:14.055Z,60558.45
2019-01-19T02:43:45.521Z,60598.08
2019-01-19T02:46:36.596Z,60569.62
2019-01-19T02:49:16.942Z,60552.35
2019-01-19T02:51:51.376Z,60576.74
2019-01-19T02:54:31.597Z,60596.05
2019-01-19T02:57:08.504Z,60555.40
2019-01-19T02:59:48.985Z,60594.02
2019-01-19T03:02:29.027Z,60590.96
2019-01-19T03:05:00.495Z,60574.71
2019-01-19T03:07:38.386Z,60583.85
2019-01-19T03:10:18.949Z,60567.59
2019-01-19T03:13:02.390Z,60550.32
2019-01-19T03:15:42.847Z,60553.36
2019-01-19T03:18:26.260Z,60583.85
2019-01-19T03:21:00.691Z,60565.56
2019-01-19T03:23:34.808Z,60584.87
2019-01-19T03:26:06.480Z,60584.87
2019-01-19T03:28:50.404Z,60585.88
2019-01-19T03:31:24.786Z,60572.67
2019-01-19T03:34:01.841Z,60572.67
2019-01-19T03:36:44.746Z,60579.79
2019-01-19T03:39:29.058Z,60578.77
2019-01-19T03:42:15.315Z,60557.43
2019-01-19T03:44:52.257Z,60561.50
2019-01-19T03:47:35.607Z,60577.75
2019-01-19T03:50:13.487Z,60573.69
2019-01-19T03:52:50.905Z,60581.82
2019-01-19T03:55:34.620Z,60572.67
2019-01-19T03:58:18.459Z,60585.88
2019-01-19T04:00:50.216Z,60583.85
2019-01-19T04:03:46.689Z,60595.03
2019-01-19T04:06:27.072Z,60589.95
2019-01-19T04:09:16.740Z,60577.75
2019-01-19T04:12:06.608Z,60539.14
2019-01-19T04:15:02.600Z,60591.98
2019-01-19T04:17:46.371Z,60559.46
2019-01-19T04:20:20.323Z,60565.56
2019-01-19T04:22:48.728Z,60549.30
2019-01-19T04:25:22.037Z,60582.84
2019-01-19T04:27:51.017Z,60616.37
2019-01-19T04:30:19.513Z,60559.46
2019-01-19T04:32:48.322Z,60557.43
2019-01-19T04:35:16.728Z,60582.84
2019-01-19T04:37:45.160Z,60547.27
2019-01-19T04:40:14.150Z,60601.13
2019-01-19T04:42:43.636Z,60558.45
2019-01-19T04:45:12.335Z,60569.62
2019-01-19T04:47:40.720Z,60590.96
2019-01-19T04:50:11.357Z,60577.75
2019-01-19T04:52:39.751Z,60570.64
2019-01-19T04:55:08.586Z,60557.43
2019-01-19T04:57:36.979Z,60580.80
2019-01-19T05:00:17.923Z,60571.66
2019-01-19T05:02:46.439Z,60569.62
2019-01-19T05:05:14.835Z,60572.67
2019-01-19T05:07:43.515Z,60593.00
2019-01-19T05:10:13.338Z,60577.75
2019-01-19T05:12:41.718Z,60574.71
2019-01-19T05:15:16.617Z,60579.79
2019-01-19T05:17:45.745Z,60582.84
2019-01-19T05:20:15.444Z,60557.43
2019-01-19T05:22:43.910Z,60599.10
2019-01-19T05:25:12.937Z,60556.41
2019-01-19T05:27:41.352Z,60609.26
2019-01-19T05:30:15.883Z,60566.57
2019-01-19T05:32:44.281Z,60566.57
2019-01-19T05:35:13.125Z,60532.02
2019-01-19T05:37:41.530Z,60548.29
2019-01-19T05:40:12.259Z,60588.93
2019-01-19T05:42:40.647Z,60570.64
2019-01-19T05:45:11.775Z,60597.06
2019-01-19T05:47:40.176Z,60582.84
2019-01-19T05:50:12.141Z,60564.54
2019-01-19T05:52:40.549Z,60553.36
2019-01-19T05:55:09.047Z,60564.54
2019-01-19T05:57:37.462Z,60577.75
2019-01-19T06:00:11.753Z,60568.61
2019-01-19T06:02:40.169Z,60566.57
2019-01-19T06:05:09.100Z,60573.69
2019-01-19T06:07:37.501Z,60571.66
2019-01-19T06:10:11.840Z,60571.66
2019-01-19T06:12:40.242Z,60553.36
2019-01-19T06:15:12.035Z,60583.85
2019-01-19T06:17:40.750Z,60562.51
2019-01-19T06:20:12.254Z,60612.31
2019-01-19T06:22:40.781Z,60561.50
2019-01-19T06:25:12.265Z,60560.48
2019-01-19T06:27:40.734Z,60576.74
2019-01-19T06:30:12.593Z,60568.61
2019-01-19T06:32:41.018Z,60570.64
2019-01-19T06:35:10.339Z,60590.96
2019-01-19T06:37:38.747Z,60558.45
2019-01-19T06:40:13.066Z,60546.25
2019-01-19T06:42:41.729Z,60560.48
2019-01-19T06:45:13.495Z,60600.11
2019-01-19T06:47:41.969Z,60566.57
2019-01-19T06:50:13.618Z,60567.59
2019-01-19T06:52:42.101Z,60558.45
2019-01-19T06:55:13.037Z,60573.69
2019-01-19T06:57:41.429Z,60551.33
2019-01-19T07:00:15.427Z,60558.45
2019-01-19T07:02:43.894Z,60561.50
2019-01-19T07:05:13.703Z,60572.67
2019-01-19T07:07:42.619Z,60587.92
2019-01-19T07:10:16.655Z,60559.46
2019-01-19T07:12:45.343Z,60585.88
2019-01-19T07:15:14.573Z,60582.84
2019-01-19T07:17:42.960Z,60543.20
2019-01-19T07:20:17.718Z,60585.88
2019-01-19T07:22:46.114Z,60581.82
2019-01-19T07:25:14.575Z,60579.79
2019-01-19T07:27:42.981Z,60581.82
2019-01-19T07:30:14.556Z,60569.62
2019-01-19T07:32:43.224Z,60576.74
2019-01-19T07:35:11.910Z,60587.92
2019-01-19T07:37:40.313Z,60580.80
2019-01-19T07:40:14.147Z,60549.30
2019-01-19T07:42:43.699Z,60584.87
2019-01-19T07:45:14.049Z,60573.69
2019-01-19T07:47:43.604Z,60587.92
2019-01-19T07:50:14.747Z,60579.79
2019-01-19T07:52:43.149Z,60562.51
2019-01-19T07:55:17.042Z,60548.29
2019-01-19T07:57:46.363Z,60568.61
2019-01-19T08:00:18.218Z,60612.31
2019-01-19T08:02:46.761Z,60574.71
2019-01-19T08:05:15.152Z,60559.46
2019-01-19T08:07:43.560Z,60590.96
2019-01-19T08:10:15.195Z,60569.62
2019-01-19T08:12:43.782Z,60560.48
2019-01-19T08:15:15.246Z,60582.84
2019-01-19T08:17:43.912Z,60578.77
2019-01-19T08:20:14.443Z,60587.92
2019-01-19T08:22:42.832Z,60566.57
2019-01-19T08:25:13.207Z,60537.11
2019-01-19T08:27:41.668Z,60597.06
2019-01-19T08:30:19.020Z,60557.43
2019-01-19T08:32:47.869Z,60582.84
2019-01-19T08:35:17.555Z,60564.54
2019-01-19T08:37:46.994Z,60597.06
2019-01-19T08:40:24.171Z,60569.62
2019-01-19T08:42:57.462Z,60549.30
2019-01-19T08:45:26.232Z,60582.84
2019-01-19T08:47:54.882Z,60555.40
2019-01-19T08:50:23.491Z,60560.48
2019-01-19T08:52:51.963Z,60568.61
2019-01-19T08:55:20.425Z,60570.64
2019-01-19T08:57:48.844Z,60581.82
2019-01-19T09:00:19.163Z,60557.43
2019-01-19T09:02:47.562Z,60590.96
2019-01-19T09:05:16.078Z,60589.95
2019-01-19T09:07:44.684Z,60562.51
2019-01-19T09:10:18.412Z,60544.22
2019-01-19T09:12:46.872Z,60581.82
2019-01-19T09:15:23.166Z,60591.98
2019-01-19T09:17:52.880Z,60596.05
2019-01-19T09:20:21.446Z,60561.50
2019-01-19T09:22:51.769Z,60576.74
2019-01-19T09:25:20.239Z,60558.45
2019-01-19T09:27:48.718Z,60573.69
2019-01-19T09:30:24.448Z,60582.84
2019-01-19T09:32:52.902Z,60574.71
2019-01-19T09:35:21.823Z,60569.62
2019-01-19T09:37:50.263Z,60569.62
2019-01-19T09:40:19.438Z,60578.77
2019-01-19T09:42:48.186Z,60572.67
2019-01-19T09:45:18.273Z,60579.79
2019-01-19T09:47:46.846Z,60558.45
2019-01-19T09:50:16.799Z,60561.50
2019-01-19T09:52:45.707Z,60560.48
2019-01-19T09:55:14.443Z,60570.64
2019-01-19T09:57:43.028Z,60538.12
2019-01-19T10:00:17.157Z,60563.53
2019-01-19T10:02:45.879Z,60558.45
2019-01-19T10:05:17.175Z,60549.30
2019-01-19T10:07:48.589Z,60555.40
2019-01-19T10:10:16.493Z,60566.57
2019-01-19T10:12:44.881Z,60566.57
2019-01-19T10:15:17.852Z,60565.56
2019-01-19T10:17:46.258Z,60543.20
2019-01-19T10:20:17.655Z,60558.45
2019-01-19T10:22:46.160Z,60541.17
2019-01-19T10:25:16.374Z,60564.54
2019-01-19T10:27:44.828Z,60542.19
2019-01-19T10:30:16.334Z,60545.23
2019-01-19T10:32:44.736Z,60560.48
2019-01-19T10:35:14.655Z,60567.59
2019-01-19T10:37:43.047Z,60546.25
2019-01-19T10:40:14.222Z,60535.07
2019-01-19T10:42:42.880Z,60553.36
2019-01-19T10:45:22.860Z,60548.29
2019-01-19T10:47:51.248Z,60576.74
2019-01-19T10:50:20.177Z,60566.57
2019-01-19T10:52:48.942Z,60555.40
2019-01-19T10:55:19.552Z,60562.51
2019-01-19T10:57:48.077Z,60544.22
2019-01-19T11:00:22.285Z,60557.43
2019-01-19T11:02:50.935Z,60538.12
2019-01-19T11:05:19.321Z,60527.96
2019-01-19T11:07:49.385Z,60547.27
2019-01-19T11:10:20.310Z,60524.91
2019-01-19T11:12:49.034Z,60520.85
2019-01-19T11:15:18.973Z,60569.62
2019-01-19T11:17:47.597Z,60536.09
2019-01-19T11:20:21.526Z,60506.62
2019-01-19T11:22:49.910Z,60522.88
2019-01-19T11:25:18.299Z,60531.01
2019-01-19T11:27:46.696Z,60552.35
2019-01-19T11:30:20.556Z,60515.77
2019-01-19T11:32:49.365Z,60520.85
2019-01-19T11:35:18.793Z,60541.17
2019-01-19T11:37:47.173Z,60526.95
2019-01-19T11:40:25.873Z,60545.23
2019-01-19T11:42:54.369Z,60545.23
2019-01-19T11:45:25.477Z,60516.78
2019-01-19T11:47:53.968Z,60542.19
2019-01-19T11:50:22.840Z,60543.20
2019-01-19T11:52:51.525Z,60518.82
2019-01-19T11:55:21.174Z,60532.02
2019-01-19T11:57:52.094Z,60537.11
2019-01-19T12:00:32.678Z,60536.09
2019-01-19T12:03:01.127Z,60534.06
2019-01-19T12:05:30.601Z,60559.46
2019-01-19T12:07:59.001Z,60549.30
2019-01-19T12:10:33.667Z,60541.17
2019-01-19T12:13:02.798Z,60555.40
2019-01-19T12:15:31.160Z,60526.95
2019-01-19T12:17:59.737Z,60527.96
2019-01-19T12:20:36.850Z,60526.95
2019-01-19T12:23:08.070Z,60539.14
2019-01-19T12:25:37.565Z,60547.27
2019-01-19T12:28:07.352Z,60517.80
2019-01-19T12:30:36.463Z,60514.75
2019-01-19T12:33:05.948Z,60531.01
2019-01-19T12:35:34.789Z,60559.46
2019-01-19T12:38:03.611Z,60507.64
2019-01-19T12:40:32.024Z,60536.09
2019-01-19T12:43:03.199Z,60511.70
2019-01-19T12:45:37.726Z,60536.09
2019-01-19T12:48:06.254Z,60543.20
2019-01-19T12:50:34.709Z,60475.12
2019-01-19T12:53:03.106Z,60494.43
2019-01-19T12:55:31.481Z,60522.88
2019-01-19T12:57:59.872Z,60515.77
2019-01-19T13:00:29.025Z,60526.95
2019-01-19T13:02:57.759Z,60523.89
2019-01-19T13:05:37.795Z,60527.96
2019-01-19T13:08:09.241Z,60518.82
2019-01-19T13:10:40.765Z,60505.60
2019-01-19T13:13:10.195Z,60497.47
2019-01-19T13:15:47.712Z,60527.96
2019-01-19T13:18:33.768Z,60517.80
2019-01-19T13:21:38.450Z,60528.98
2019-01-19T13:24:29.549Z,60542.19
2019-01-19T13:27:06.965Z,60506.62
2019-01-19T13:30:09.010Z,60473.09
2019-01-19T13:32:55.081Z,60511.70
2019-01-19T13:35:58.499Z,60498.49
2019-01-19T13:38:32.473Z,60491.38
2019-01-19T13:41:09.845Z,60515.77
2019-01-19T13:43:50.899Z,60487.31
2019-01-19T13:46:25.222Z,60513.73
2019-01-19T13:49:02.407Z,60513.73
2019-01-19T13:51:33.927Z,60519.83
2019-01-19T13:54:20.563Z,60522.88
2019-01-19T13:56:55.288Z,60509.67
2019-01-19T13:59:35.572Z,60518.82
2019-01-19T14:02:23.071Z,60534.06
2019-01-19T14:05:18.723Z,60488.33
2019-01-19T14:08:06.470Z,60495.44
2019-01-19T14:10:58.102Z,60492.39
2019-01-19T14:13:46.058Z,60498.49
2019-01-19T14:16:29.183Z,60502.55
2019-01-19T14:19:35.354Z,60514.75
2019-01-19T14:22:36.826Z,60520.85
2019-01-19T14:25:26.515Z,60497.47
2019-01-19T14:28:14.649Z,60502.55
2019-01-19T14:30:51.977Z,60489.34
2019-01-19T14:33:42.284Z,60505.60
2019-01-19T14:36:18.924Z,60489.34
2019-01-19T14:38:56.830Z,60514.75
2019-01-19T14:41:53.780Z,60489.34
2019-01-19T14:44:33.748Z,60494.43
2019-01-19T14:47:17.555Z,60518.82
2019-01-19T14:50:03.948Z,60508.65
2019-01-19T14:52:41.410Z,60508.65
2019-01-19T14:55:21.657Z,60489.34
2019-01-19T14:57:55.576Z,60490.36
2019-01-19T15:00:30.037Z,60508.65
2019-01-19T15:03:17.584Z,60518.82
2019-01-19T15:05:55.109Z,60501.54
2019-01-19T15:08:29.150Z,60511.70
2019-01-19T15:11:09.167Z,60509.67
2019-01-19T15:14:01.794Z,60526.95
2019-01-19T15:17:06.316Z,60478.16
2019-01-19T15:19:46.715Z,60546.25
2019-01-19T15:22:42.715Z,60495.44
2019-01-19T15:25:35.707Z,60506.62
2019-01-19T15:28:23.804Z,60500.52
2019-01-19T15:30:55.258Z,60511.70
2019-01-19T15:33:49.267Z,60495.44
2019-01-19T15:36:20.719Z,60505.60
2019-01-19T15:39:11.575Z,60500.52
2019-01-19T15:42:01.171Z,60492.39
2019-01-19T15:44:38.384Z,60506.62
2019-01-19T15:47:26.394Z,60523.89
2019-01-19T15:50:07.249Z,60528.98
2019-01-19T15:52:41.865Z,60512.72
2019-01-19T15:55:16.009Z,60534.06
2019-01-19T15:57:47.688Z,60507.64
2019-01-19T16:00:36.793Z,60508.65
2019-01-19T16:03:20.135Z,60504.59
2019-01-19T16:05:57.451Z,60544.22
2019-01-19T16:08:43.687Z,60480.20
2019-01-19T16:11:17.861Z,60508.65
2019-01-19T16:14:11.976Z,60507.64
2019-01-19T16:16:49.071Z,60523.89
2019-01-19T16:19:26.254Z,60493.41
2019-01-19T16:22:03.553Z,60489.34
2019-01-19T16:24:54.609Z,60518.82
2019-01-19T16:27:26.047Z,60527.96
2019-01-19T16:29:57.548Z,60475.12
2019-01-19T16:32:46.960Z,60541.17
2019-01-19T16:35:37.036Z,60513.73
2019-01-19T16:38:28.347Z,60509.67
2019-01-19T16:41:19.902Z,60485.28
2019-01-19T16:43:55.254Z,60516.78
2019-01-19T16:46:34.586Z,60522.88
2019-01-19T16:49:06.142Z,60515.77
2019-01-19T16:52:11.201Z,60519.83
2019-01-19T16:54:49.177Z,60524.91
2019-01-19T16:57:51.454Z,60517.80
2019-01-19T17:00:51.813Z,60533.04
2019-01-19T17:03:31.957Z,60524.91
2019-01-19T17:06:29.937Z,60512.72
2019-01-19T17:09:33.154Z,60518.82
2019-01-19T17:12:03.163Z,60520.85
2019-01-19T17:14:34.617Z,60513.73
2019-01-19T17:17:22.429Z,60538.12
2019-01-19T17:19:56.682Z,60506.62
2019-01-19T17:22:36.761Z,60504.59
2019-01-19T17:25:25.971Z,60516.78
2019-01-19T17:28:18.357Z,60515.77
2019-01-19T17:31:18.434Z,60542.19
2019-01-19T17:34:01.951Z,60529.99
2019-01-19T17:36:42.001Z,60513.73
2019-01-19T17:39:30.013Z,60524.91
2019-01-19T17:42:05.295Z,60508.65
2019-01-19T17:45:04.045Z,60518.82
2019-01-19T17:47:38.774Z,60511.70
2019-01-19T17:50:16.107Z,60554.38
2019-01-19T17:52:47.545Z,60517.80
2019-01-19T17:55:38.234Z,60542.19
2019-01-19T17:58:32.131Z,60489.34
2019-01-19T18:01:21.551Z,60535.07
2019-01-19T18:03:56.211Z,60529.99
2019-01-19T18:06:42.537Z,60512.72
2019-01-19T18:09:15.219Z,60517.80
2019-01-19T18:11:52.491Z,60520.85
2019-01-19T18:14:35.789Z,60513.73
2019-01-19T18:17:25.573Z,60484.26
2019-01-19T18:20:11.811Z,60509.67
2019-01-19T18:22:45.941Z,60515.77
2019-01-19T18:25:26.578Z,60518.82
2019-01-19T18:28:04.347Z,60542.19
2019-01-19T18:30:53.623Z,60533.04
2019-01-19T18:33:27.983Z,60541.17
2019-01-19T18:36:14.231Z,60504.59
2019-01-19T18:39:04.673Z,60514.75
2019-01-19T18:41:44.940Z,60479.18
2019-01-19T18:44:43.017Z,60516.78
2019-01-19T18:47:40.588Z,60515.77
2019-01-19T18:50:24.039Z,60510.68
2019-01-19T18:53:10.536Z,60514.75
2019-01-19T18:55:44.667Z,60513.73
2019-01-19T18:58:46.144Z,60497.47
2019-01-19T19:01:37.444Z,60514.75
2019-01-19T19:04:14.834Z,60508.65
2019-01-19T19:07:02.560Z,60518.82
2019-01-19T19:10:01.929Z,60517.80
2019-01-19T19:12:37.034Z,60518.82
2019-01-19T19:15:27.001Z,60534.06
2019-01-19T19:18:10.181Z,60535.07
2019-01-19T19:20:59.830Z,60531.01
2019-01-19T19:23:55.326Z,60506.62
2019-01-19T19:26:35.920Z,60524.91
2019-01-19T19:29:16.100Z,60527.96
2019-01-19T19:31:53.795Z,60537.11
2019-01-19T19:34:45.100Z,60504.59
2019-01-19T19:37:16.560Z,60511.70
2019-01-19T19:39:48.095Z,60526.95
2019-01-19T19:42:34.298Z,60486.29
2019-01-19T19:45:08.816Z,60536.09
2019-01-19T19:47:46.036Z,60499.50
2019-01-19T19:50:23.443Z,60519.83
2019-01-19T19:52:51.912Z,60544.22
2019-01-19T19:55:19.280Z,60520.85
2019-01-19T19:57:47.978Z,60531.01
2019-01-19T20:00:16.819Z,60535.07
2019-01-19T20:02:45.211Z,60529.99
2019-01-19T20:05:15.367Z,60520.85
2019-01-19T20:07:43.875Z,60518.82
2019-01-19T20:10:16.984Z,60505.60
2019-01-19T20:12:43.389Z,60561.50
2019-01-19T20:15:12.724Z,60522.88
2019-01-19T20:17:41.536Z,60516.78
2019-01-19T20:20:11.557Z,60499.50
2019-01-19T20:22:40.365Z,60518.82
2019-01-19T20:25:09.694Z,60504.59
2019-01-19T20:27:39.873Z,60513.73
2019-01-19T20:30:14.383Z,60516.78
2019-01-19T20:32:42.839Z,60529.99
2019-01-19T20:35:11.355Z,60519.83
2019-01-19T20:37:39.772Z,60488.33
2019-01-19T20:40:10.233Z,60545.23
2019-01-19T20:42:38.801Z,60547.27
2019-01-19T20:45:10.272Z,60529.99
2019-01-19T20:47:39.850Z,60510.68
2019-01-19T20:50:11.291Z,60519.83
2019-01-19T20:52:40.085Z,60521.86
2019-01-19T20:55:11.340Z,60532.02
2019-01-19T20:57:39.868Z,60522.88
2019-01-19T21:00:15.332Z,60520.85
2019-01-19T21:02:43.748Z,60525.93
2019-01-19T21:05:12.228Z,60521.86
2019-01-19T21:07:40.867Z,60528.98
2019-01-19T21:10:09.700Z,60539.14
2019-01-19T21:12:38.111Z,60548.29
2019-01-19T21:15:09.565Z,60519.83
2019-01-19T21:17:38.006Z,60526.95
2019-01-19T21:20:09.256Z,60545.23
2019-01-19T21:22:37.662Z,60517.80
2019-01-19T21:25:07.914Z,60501.54
2019-01-19T21:27:36.410Z,60561.50
2019-01-19T21:30:10.314Z,60538.12
2019-01-19T21:32:38.737Z,60557.43
2019-01-19T21:35:08.430Z,60521.86
2019-01-19T21:37:36.867Z,60506.62
2019-01-19T21:40:08.329Z,60519.83
2019-01-19T21:42:36.719Z,60538.12
2019-01-19T21:45:11.168Z,60534.06
2019-01-19T21:47:39.582Z,60514.75
2019-01-19T21:50:10.903Z,60537.11
2019-01-19T21:52:39.387Z,60549.30
2019-01-19T21:55:09.543Z,60508.65
2019-01-19T21:57:37.934Z,60527.96
2019-01-19T22:00:15.224Z,60560.48
2019-01-19T22:02:43.611Z,60513.73
2019-01-19T22:05:12.453Z,60525.93
2019-01-19T22:07:41.199Z,60524.91
2019-01-19T22:10:15.830Z,60534.06
2019-01-19T22:12:44.226Z,60524.91
2019-01-19T22:15:17.296Z,60507.64
2019-01-19T22:17:45.982Z,60539.14
2019-01-19T22:20:16.982Z,60549.30
2019-01-19T22:22:45.529Z,60528.98
2019-01-19T22:25:14.832Z,60526.95
2019-01-19T22:27:44.903Z,60508.65
2019-01-19T22:30:16.364Z,60496.46
2019-01-19T22:32:44.771Z,60503.57
2019-01-19T22:35:13.744Z,60515.77
2019-01-19T22:37:42.149Z,60529.99
2019-01-19T22:40:14.305Z,60548.29
2019-01-19T22:42:43.347Z,60539.14
2019-01-19T22:45:13.914Z,60514.75
2019-01-19T22:47:42.704Z,60522.88
2019-01-19T22:50:14.086Z,60528.98
2019-01-19T22:52:42.539Z,60529.99
2019-01-19T22:55:16.605Z,60514.75
2019-01-19T22:57:45.048Z,60514.75
2019-01-19T23:00:29.810Z,60549.30
2019-01-19T23:02:58.210Z,60517.80
2019-01-19T23:05:26.606Z,60514.75
2019-01-19T23:07:55.342Z,60523.89
2019-01-19T23:10:24.035Z,60531.01
2019-01-19T23:12:52.708Z,60483.25
2019-01-19T23:15:21.429Z,60507.64
2019-01-19T23:17:49.819Z,60519.83
2019-01-19T23:20:18.459Z,60521.86
2019-01-19T23:22:47.105Z,60521.86
2019-01-19T23:25:15.799Z,60505.60
2019-01-19T23:27:44.184Z,60518.82
2019-01-19T23:30:15.459Z,60544.22
2019-01-19T23:32:44.261Z,60527.96
2019-01-19T23:35:12.709Z,60522.88
2019-01-19T23:37:41.116Z,60539.14
2019-01-19T23:40:12.462Z,60509.67
2019-01-19T23:42:47.194Z,60536.09
2019-01-19T23:45:11.290Z,60526.95
2019-01-19T23:47:39.691Z,60509.67
2019-01-19T23:50:10.424Z,60527.96
2019-01-19T23:52:39.146Z,60499.50
2019-01-19T23:55:08.034Z,60499.50
2019-01-19T23:57:36.606Z,60529.99
